Terminal Aerodrome Forecast
Issued by NWS

Home | Current Version | Previous Version | Text Only | Print | Product List | Glossary On
Versions: 1 2 3 4 5 6 7 8 9 10 11 12 13 14 15
331
FTUS45 KRIW 281720
TAFBPI
TAF
KBPI 281720Z 2818/0118 VRB06KT P6SM VCSH SCT050 SCT120
     FM281900 27015G20KT P6SM VCSH BKN035 OVC060
     FM010600 20008KT P6SM SCT060 WS015/30035KT
     FM011600 VRB05KT P6SM BKN040=

USA.gov is the U.S. government's official web portal to all federal, state and local government web resources and services.